Time;durP1;ratioP1;P1;durP2;ratioP2;P2;SDS_P1;SDS_P2;PMS_P1;PMS_P2;Temp;Humidity;BMP_temperature;BMP_pressure;BME280_temperature;BME280_humidity;BME280_pressure;Samples;Min_cycle;Max_cycle;Signal;HPM_P1;HPM_P2
2022/12/09 00:00:21;;;;;;;64.27;25.03;;;;;;;0.08;100.00;100540.09;5000127;28;20046;-95
2022/12/09 00:02:52;;;;;;;65.97;25.83;;;;;;;0.23;100.00;100563.66;5015383;28;20014;-93
2022/12/09 00:05:17;;;;;;;63.25;23.67;;;;;;;0.08;100.00;100542.72;5009709;28;20133;-95
2022/12/09 00:07:42;;;;;;;65.83;25.00;;;;;;;0.23;100.00;100561.03;4978031;28;20057;-95
2022/12/09 00:10:08;;;;;;;64.43;25.10;;;;;;;0.11;100.00;100545.78;5017706;22;20037;-95
2022/12/09 00:12:48;;;;;;;63.03;25.88;;;;;;;0.09;100.00;100537.25;5021709;28;20037;-94
2022/12/09 00:15:19;;;;;;;58.97;24.63;;;;;;;0.10;100.00;100541.50;5025678;28;20123;-93
2022/12/09 00:17:45;;;;;;;53.47;24.40;;;;;;;0.20;100.00;100558.78;5030139;28;20088;-92
2022/12/09 00:20:16;;;;;;;58.60;24.50;;;;;;;0.14;100.00;100545.41;5024927;28;20030;-93
2022/12/09 00:22:56;;;;;;;58.20;25.88;;;;;;;0.12;100.00;100536.03;5032002;28;20010;-95
2022/12/09 00:25:34;;;;;;;66.03;25.88;;;;;;;0.17;100.00;100543.38;5030211;28;20022;-94
2022/12/09 00:30:58;;;;;;;62.38;25.92;;;;;;;0.30;100.00;100554.78;5014889;28;20401;-95
2022/12/09 00:33:34;;;;;;;58.90;24.87;;;;;;;0.32;100.00;100556.41;5016667;28;20065;-95
2022/12/09 00:36:11;;;;;;;70.40;26.17;;;;;;;0.33;100.00;100560.66;5013939;28;20280;-95
2022/12/09 00:38:50;;;;;;;66.50;26.88;;;;;;;0.15;100.00;100533.03;5015501;28;20601;-95
2022/12/09 00:41:47;;;;;;;;;;;;;;;;;;;;;
2022/12/09 00:44:13;;;;;;;64.30;26.63;;;;;;;0.34;100.00;100560.50;4995975;28;20046;-95
2022/12/09 00:46:45;;;;;;;68.47;26.60;;;;;;;0.29;100.00;100549.72;5008752;28;20117;-95
2022/12/09 00:49:33;;;;;;;79.60;27.97;;;;;;;0.33;100.00;100558.84;5030981;28;20084;-94
2022/12/09 00:52:20;;;;;;;69.27;27.03;;;;;;;0.37;100.00;100567.97;5014636;28;20917;-95
2022/12/09 01:14:31;;;;;;;68.00;27.63;;;;;;;0.27;100.00;100538.56;5141562;22;20537;-95
2022/12/09 01:17:06;;;;;;;80.13;30.73;;;;;;;0.45;100.00;100567.03;5038566;28;20035;-95
2022/12/09 01:19:31;;;;;;;74.97;29.83;;;;;;;0.43;100.00;100561.94;5031645;28;20075;-93
2022/12/09 01:21:56;;;;;;;76.13;30.10;;;;;;;0.29;100.00;100544.44;5015917;28;20300;-95
2022/12/09 01:24:22;;;;;;;72.93;29.90;;;;;;;0.32;100.00;100557.22;5029472;28;20491;-95
2022/12/09 01:26:59;;;;;;;75.43;29.53;;;;;;;0.38;100.00;100561.69;5047350;28;20044;-96
2022/12/09 01:30:23;;;;;;;71.03;28.08;;;;;;;0.45;100.00;100570.47;5014114;28;20130;-95
2022/12/09 01:32:48;;;;;;;67.93;28.30;;;;;;;0.32;100.00;100546.69;5014682;28;20517;-95
2022/12/09 01:35:20;;;;;;;74.57;29.07;;;;;;;0.37;100.00;100548.72;5032714;28;20033;-95
2022/12/09 01:37:45;;;;;;;70.97;29.38;;;;;;;0.44;100.00;100568.03;5002300;28;20049;-95
2022/12/09 01:40:15;;;;;;;69.83;27.63;;;;;;;0.43;100.00;100563.78;5035634;28;20021;-94
2022/12/09 01:42:51;;;;;;;69.90;29.45;;;;;;;0.37;100.00;100552.16;5041629;28;20155;-96
2022/12/09 01:45:35;;;;;;;76.82;31.83;;;;;;;0.51;100.00;100574.13;5036284;28;20025;-95
2022/12/09 01:48:37;;;;;;;78.03;29.88;;;;;;;0.42;100.00;100554.22;5014301;28;20037;-95
2022/12/09 01:53:42;;;;;;;75.93;29.15;;;;;;;0.37;100.00;100554.00;5077296;22;20057;-93
2022/12/09 01:56:34;;;;;;;72.93;28.50;;;;;;;0.51;100.00;100568.84;5021213;28;20084;-95
2022/12/09 01:59:25;;;;;;;73.10;27.97;;;;;;;0.52;100.00;100577.59;5023483;28;20277;-96
2022/12/09 02:01:55;;;;;;;73.75;28.65;;;;;;;0.40;100.00;100554.41;4999501;28;20034;-95
2022/12/09 02:26:16;;;;;;;80.80;29.30;;;;;;;0.53;100.00;100572.13;5828004;23;20057;-94
2022/12/09 02:29:08;;;;;;;72.68;28.85;;;;;;;0.55;100.00;100575.38;5016696;28;20046;-95
2022/12/09 02:31:52;;;;;;;72.57;28.75;;;;;;;0.56;100.00;100565.63;5019239;28;20054;-94
2022/12/09 02:34:20;;;;;;;77.82;30.13;;;;;;;0.53;100.00;100560.75;5035544;28;20079;-93
2022/12/09 02:36:55;;;;;;;87.40;31.98;;;;;;;0.56;100.00;100566.44;5033870;28;20021;-94
2022/12/09 02:39:40;;;;;;;85.00;31.70;;;;;;;0.48;100.00;100560.53;5031708;28;20033;-96
2022/12/09 02:42:35;;;;;;;79.35;30.10;;;;;;;0.45;100.00;100557.28;5029163;28;20038;-96
2022/12/09 04:03:56;;;;;;;75.63;30.25;;;;;;;0.50;100.00;100527.69;5631133;22;20851;-95
2022/12/09 04:06:31;;;;;;;73.97;30.90;;;;;;;0.40;100.00;100517.50;5044694;28;20045;-96
2022/12/09 04:08:56;;;;;;;79.97;29.25;;;;;;;0.38;100.00;100519.53;5046444;28;20543;-96
2022/12/09 04:32:11;;;;;;;75.97;29.87;;;;;;;0.34;100.00;100513.03;5744164;23;20525;-96
2022/12/09 04:34:37;;;;;;;78.10;29.58;;;;;;;0.35;100.00;100509.41;5004659;28;20065;-94
2022/12/09 04:37:02;;;;;;;75.63;30.42;;;;;;;0.23;100.00;100495.13;5015786;28;20113;-96
2022/12/09 04:39:29;;;;;;;87.63;32.23;;;;;;;0.30;100.00;100509.16;5014320;28;20600;-96
2022/12/09 04:41:55;;;;;;;80.05;30.52;;;;;;;0.32;100.00;100504.50;5014706;28;20104;-96
2022/12/09 04:44:24;;;;;;;85.90;32.83;;;;;;;0.22;100.00;100480.34;5014336;28;20026;-95
2022/12/09 04:49:43;;;;;;;87.60;31.43;;;;;;;0.18;100.00;100487.84;4998372;28;20405;-95
2022/12/09 05:28:31;;;;;;;83.05;29.60;;;;;;;0.33;100.00;100521.97;5894646;23;20049;-94
2022/12/09 05:31:15;;;;;;;82.40;30.00;;;;;;;0.15;100.00;100493.50;5037375;28;20029;-96
2022/12/09 05:33:50;;;;;;;76.60;29.63;;;;;;;0.29;100.00;100520.72;5046757;28;20357;-96
2022/12/09 05:36:28;;;;;;;77.70;28.75;;;;;;;0.12;100.00;100488.59;5058151;28;20037;-95
2022/12/09 05:41:59;;;;;;;87.40;31.35;;;;;;;0.23;100.00;100517.06;5078458;23;20033;-96
2022/12/09 05:44:31;;;;;;;75.60;29.02;;;;;;;0.05;100.00;100499.13;5044811;28;20113;-96
2022/12/09 05:47:09;;;;;;;77.05;28.80;;;;;;;0.22;100.00;100523.34;5033492;28;20077;-96
2022/12/09 05:49:55;;;;;;;80.70;29.50;;;;;;;0.16;100.00;100510.13;5028961;28;20180;-96
2022/12/09 06:08:32;;;;;;;84.32;30.13;;;;;;;0.02;100.00;100486.34;5103260;23;20058;-95
2022/12/09 06:11:04;;;;;;;78.93;29.90;;;;;;;0.00;100.00;100485.75;5011181;28;20026;-94
2022/12/09 06:53:44;;;;;;;87.50;32.30;;;;;;;-0.22;100.00;100493.75;5002539;28;20053;-95
2022/12/09 06:59:34;;;;;;;87.25;30.55;;;;;;;-0.16;100.00;100503.47;5013929;28;20052;-93
2022/12/09 07:01:59;;;;;;;94.65;31.25;;;;;;;-0.26;100.00;100492.50;5014511;28;20385;-93
2022/12/09 07:05:10;;;;;;;79.50;27.23;;;;;;;-0.27;100.00;100496.13;5028233;28;20034;-96
2022/12/09 07:08:16;;;;;;;91.82;30.58;;;;;;;-0.30;100.00;100499.16;5008729;28;20037;-95
2022/12/09 07:14:16;;;;;;;88.65;30.90;;;;;;;-0.40;100.00;100501.31;5147443;22;20057;-95
2022/12/09 07:21:57;;;;;;;92.13;30.77;;;;;;;-0.46;100.00;100508.19;5067426;22;20049;-94
2022/12/09 07:24:23;;;;;;;101.97;29.77;;;;;;;-0.48;100.00;100511.00;5031588;28;20032;-93
2022/12/09 07:26:50;;;;;;;99.90;31.98;;;;;;;-0.47;100.00;100511.81;5023066;28;20049;-96
2022/12/09 07:29:16;;;;;;;92.07;30.67;;;;;;;-0.46;100.00;100508.19;5032255;28;20022;-95
2022/12/09 07:31:43;;;;;;;93.30;30.65;;;;;;;-0.44;100.00;100518.50;5032239;28;20044;-96
2022/12/09 07:34:27;;;;;;;103.32;33.88;;;;;;;-0.38;100.00;100525.66;5033568;28;20026;-95
2022/12/09 07:36:52;;;;;;;90.93;31.35;;;;;;;-0.40;100.00;100525.03;5035693;28;20523;-95
2022/12/09 07:39:20;;;;;;;90.17;32.03;;;;;;;-0.42;100.00;100532.28;5085558;22;20045;-96
2022/12/09 07:41:57;;;;;;;88.00;30.48;;;;;;;-0.49;100.00;100535.69;5033516;28;20042;-95
2022/12/09 07:44:23;;;;;;;86.60;30.30;;;;;;;-0.48;100.00;100545.22;5034914;28;20105;-95
2022/12/09 07:55:21;;;;;;;92.75;30.20;;;;;;;-0.52;100.00;100545.78;5614350;22;20054;-92
2022/12/09 07:57:46;;;;;;;83.90;31.60;;;;;;;-0.42;100.00;100559.44;5032270;28;20047;-93
2022/12/09 08:00:12;;;;;;;93.53;33.33;;;;;;;-0.46;100.00;100548.47;5032229;28;20116;-94
2022/12/09 08:03:34;;;;;;;101.30;32.88;;;;;;;-0.52;100.00;100524.72;5031843;28;20041;-93
2022/12/09 08:47:33;;;;;;;119.60;37.33;;;;;;;0.03;100.00;100537.22;6007243;23;20013;-92
2022/12/09 08:49:58;;;;;;;107.90;36.43;;;;;;;-0.02;100.00;100522.81;5034060;28;20079;-93
2022/12/09 08:52:24;;;;;;;118.83;35.57;;;;;;;0.12;100.00;100533.41;5043389;28;20454;-93
2022/12/09 08:54:50;;;;;;;116.55;36.08;;;;;;;0.04;100.00;100523.03;5053212;28;20044;-93
2022/12/09 08:57:20;;;;;;;119.83;36.60;;;;;;;0.21;100.00;100536.69;5047809;28;20013;-94
2022/12/09 08:59:48;;;;;;;125.90;38.97;;;;;;;0.22;100.00;100535.69;5049925;28;20041;-94
2022/12/09 09:02:13;;;;;;;353.10;90.68;;;;;;;0.17;100.00;100523.09;5057146;28;20012;-94
2022/12/09 09:04:39;;;;;;;154.97;43.40;;;;;;;0.35;100.00;100550.75;5052057;28;20030;-93
2022/12/09 09:07:04;;;;;;;152.87;45.80;;;;;;;0.33;100.00;100548.31;5045907;28;20037;-94
2022/12/09 09:09:29;;;;;;;141.70;42.13;;;;;;;0.23;100.00;100537.31;5045050;28;20071;-94
2022/12/09 09:11:55;;;;;;;127.30;39.63;;;;;;;0.24;100.00;100552.94;5041758;28;20065;-93
2022/12/09 09:14:20;;;;;;;128.00;35.97;;;;;;;0.20;100.00;100553.50;5035661;28;20513;-93
2022/12/09 09:16:57;;;;;;;115.60;35.40;;;;;;;0.06;100.00;100568.47;5035428;28;20302;-93
2022/12/09 09:19:47;;;;;;;121.03;36.45;;;;;;;0.03;100.00;100569.63;5035116;28;20029;-93
2022/12/09 09:22:48;;;;;;;99.32;31.20;;;;;;;-0.01;100.00;100545.50;5034249;28;20026;-93
2022/12/09 09:25:13;;;;;;;140.60;40.93;;;;;;;0.13;100.00;100575.38;5033562;28;20018;-93
2022/12/09 09:27:45;;;;;;;155.73;44.87;;;;;;;-0.02;100.00;100562.31;5034268;28;20325;-94
2022/12/09 09:30:19;;;;;;;110.50;34.35;;;;;;;0.00;100.00;100575.31;5032883;28;20036;-94
2022/12/09 09:33:01;;;;;;;107.80;34.70;;;;;;;-0.06;100.00;100574.25;5033838;28;20037;-94
2022/12/09 09:38:12;;;;;;;100.70;34.92;;;;;;;-0.28;100.00;100555.06;5041919;22;20041;-94
2022/12/09 09:40:53;;;;;;;111.65;35.97;;;;;;;-0.38;100.00;100549.34;5036241;28;20041;-94
2022/12/09 09:43:35;;;;;;;99.63;33.42;;;;;;;-0.33;100.00;100554.81;5031003;28;20421;-94
2022/12/09 09:46:06;;;;;;;98.07;35.25;;;;;;;-0.46;100.00;100552.94;5034501;28;20701;-94
2022/12/09 09:48:46;;;;;;;84.00;30.35;;;;;;;-0.39;100.00;100571.41;5033897;28;20025;-94
2022/12/09 09:51:25;;;;;;;98.05;30.85;;;;;;;-0.47;100.00;100557.38;5033420;28;20025;-94
2022/12/09 09:54:30;;;;;;;84.90;30.40;;;;;;;-0.42;100.00;100563.88;5033611;28;20384;-94
2022/12/09 09:57:13;;;;;;;74.73;26.30;;;;;;;-0.48;100.00;100565.47;5034121;28;20025;-94
2022/12/09 10:00:20;;;;;;;96.72;31.10;;;;;;;-0.52;100.00;100557.13;5032399;28;20473;-95
2022/12/09 10:02:57;;;;;;;108.93;33.67;;;;;;;-0.28;100.00;100559.53;5033742;28;20136;-95
2022/12/09 10:18:30;;;;;;;91.00;28.80;;;;;;;-0.01;100.00;100563.97;5632892;22;20316;-94
2022/12/09 10:20:56;;;;;;;104.63;31.30;;;;;;;0.01;100.00;100558.47;5013088;28;20531;-93
2022/12/09 10:23:30;;;;;;;86.43;27.30;;;;;;;0.02;100.00;100552.19;5014439;28;20033;-94
2022/12/09 10:26:16;;;;;;;91.07;30.30;;;;;;;-0.03;100.00;100550.16;5014084;28;20025;-94
2022/12/09 10:29:06;;;;;;;91.03;30.60;;;;;;;0.11;100.00;100566.88;5012911;28;20026;-94
2022/12/09 10:31:32;;;;;;;93.88;29.67;;;;;;;0.10;100.00;100559.97;5013656;28;20022;-94
2022/12/09 10:33:58;;;;;;;106.15;32.95;;;;;;;0.12;100.00;100544.78;5011515;28;20026;-94
2022/12/09 10:49:22;;;;;;;95.95;28.10;;;;;;;0.08;100.00;100540.91;5042563;22;20049;-94
2022/12/09 10:51:49;;;;;;;97.60;29.97;;;;;;;0.05;100.00;100546.56;5028472;28;20513;-93
2022/12/09 10:54:32;;;;;;;95.82;28.23;;;;;;;0.22;100.00;100554.13;5015745;28;20059;-94
2022/12/09 10:57:10;;;;;;;94.63;29.30;;;;;;;0.38;100.00;100564.34;5012125;28;20037;-93
2022/12/09 10:59:37;;;;;;;89.72;28.70;;;;;;;0.37;100.00;100557.44;5012258;28;20109;-94
2022/12/09 11:02:08;;;;;;;90.07;29.45;;;;;;;0.33;100.00;100550.13;5008294;28;20048;-94
2022/12/09 11:04:45;;;;;;;87.17;26.20;;;;;;;0.18;100.00;100531.84;5012906;28;20076;-94
2022/12/09 11:07:10;;;;;;;72.70;26.23;;;;;;;0.17;100.00;100544.19;5029293;28;20048;-93
2022/12/09 11:09:43;;;;;;;77.77;26.23;;;;;;;0.14;100.00;100534.03;5044146;22;20136;-93
2022/12/09 11:12:38;;;;;;;84.75;28.95;;;;;;;0.34;100.00;100554.38;5031953;28;20033;-93
2022/12/09 11:15:11;;;;;;;82.38;26.83;;;;;;;0.52;100.00;100552.03;5032492;28;20021;-92
2022/12/09 11:17:39;;;;;;;79.90;27.20;;;;;;;0.70;100.00;100548.03;5032146;28;20029;-93
2022/12/09 11:20:04;;;;;;;84.97;26.17;;;;;;;0.85;100.00;100550.50;5032139;28;20102;-92
2022/12/09 11:22:39;;;;;;;66.30;23.10;;;;;;;0.88;100.00;100543.00;5032874;28;20049;-93
2022/12/09 11:25:11;;;;;;;60.20;21.33;;;;;;;0.95;100.00;100548.28;5033075;28;20477;-93
2022/12/09 11:27:53;;;;;;;60.58;20.95;;;;;;;1.08;100.00;100551.97;5030712;28;20128;-92
2022/12/09 11:39:49;;;;;;;71.25;24.05;;;;;;;0.85;100.00;100524.91;5072993;22;20046;-94
2022/12/09 11:46:12;;;;;;;61.80;22.30;;;;;;;0.92;100.00;100551.31;5014472;28;20157;-94
2022/12/09 12:28:33;;;;;;;43.22;15.25;;;;;;;1.32;100.00;100543.44;5028327;28;20083;-93
2022/12/09 12:31:33;;;;;;;39.85;14.50;;;;;;;1.27;100.00;100548.53;5006345;28;20026;-94
2022/12/09 12:34:14;;;;;;;36.15;14.88;;;;;;;1.23;100.00;100544.66;5016467;28;20045;-94
2022/12/09 12:36:51;;;;;;;40.03;15.40;;;;;;;1.29;100.00;100549.13;5023381;28;20026;-94
2022/12/09 12:39:26;;;;;;;38.93;16.20;;;;;;;1.32;100.00;100547.91;5030605;28;20053;-94
2022/12/09 12:42:30;;;;;;;33.87;13.80;;;;;;;1.34;100.00;100546.69;5026272;28;20900;-92
2022/12/09 12:48:26;;;;;;;33.70;12.18;;;;;;;1.19;100.00;100540.78;5006889;28;20041;-95
2022/12/09 12:58:26;;;;;;;30.88;13.18;;;;;;;1.42;100.00;100526.38;5016910;28;20044;-94
2022/12/09 13:01:30;;;;;;;33.33;13.65;;;;;;;1.53;100.00;100533.69;5047386;23;20038;-94
2022/12/09 13:04:42;;;;;;;39.53;14.87;;;;;;;1.50;100.00;100528.78;5015631;28;20022;-93
2022/12/09 13:09:54;;;;;;;38.97;14.25;;;;;;;1.38;100.00;100504.03;5941371;23;20048;-94
2022/12/09 13:20:52;;;;;;;82.97;27.33;;;;;;;1.51;100.00;100518.06;5109881;22;20055;-94
2022/12/09 13:24:12;;;;;;;39.43;14.33;;;;;;;1.47;100.00;100521.28;5055485;28;20284;-95
2022/12/09 13:30:30;;;;;;;36.42;14.85;;;;;;;1.03;100.00;100537.53;5050511;28;20048;-94
2022/12/09 13:33:27;;;;;;;34.53;13.93;;;;;;;0.94;100.00;100516.81;5045191;28;20045;-94
2022/12/09 13:35:56;;;;;;;40.67;16.17;;;;;;;1.03;100.00;100526.97;5036554;28;20057;-93
2022/12/09 13:38:32;;;;;;;41.78;15.00;;;;;;;1.09;100.00;100529.84;5033115;28;20136;-93
2022/12/09 13:40:58;;;;;;;36.63;13.73;;;;;;;1.04;100.00;100527.78;5040278;28;20017;-94
2022/12/09 13:43:26;;;;;;;37.77;14.03;;;;;;;0.96;100.00;100520.06;5041688;28;20029;-96
2022/12/09 13:45:57;;;;;;;37.33;15.25;;;;;;;0.93;100.00;100512.56;5044515;28;20021;-90
2022/12/09 13:48:48;;;;;;;35.45;14.27;;;;;;;1.02;100.00;100528.00;5064209;22;20127;-91
2022/12/09 13:51:22;;;;;;;36.63;15.23;;;;;;;0.99;100.00;100530.22;5043159;28;20051;-91
2022/12/09 13:54:05;;;;;;;35.27;15.03;;;;;;;0.84;100.00;100510.09;5041221;28;20295;-91
2022/12/09 13:56:37;;;;;;;36.20;15.57;;;;;;;0.86;100.00;100505.44;5021798;28;20037;-92
2022/12/09 13:59:27;;;;;;;35.83;14.57;;;;;;;1.04;100.00;100539.16;5019510;28;20156;-90
2022/12/09 14:02:11;;;;;;;41.35;15.20;;;;;;;1.04;100.00;100533.06;5011531;28;20063;-90
2022/12/09 14:04:55;;;;;;;40.38;15.73;;;;;;;1.04;100.00;100538.34;5053839;28;20087;-89
2022/12/09 14:07:47;;;;;;;36.70;14.35;;;;;;;0.90;100.00;100514.59;5053815;28;20029;-92
2022/12/09 14:10:31;;;;;;;38.33;15.82;;;;;;;1.02;100.00;100527.16;5049661;28;20060;-90
2022/12/09 14:12:56;;;;;;;40.30;15.40;;;;;;;0.98;100.00;100524.13;5045114;28;20041;-92
2022/12/09 14:15:28;;;;;;;38.95;14.85;;;;;;;0.96;100.00;100528.00;5047975;28;20132;-90
2022/12/09 14:21:18;;;;;;;35.97;14.00;;;;;;;0.85;100.00;100537.31;5048970;28;20366;-93
2022/12/09 14:24:24;;;;;;;40.97;15.25;;;;;;;0.85;100.00;100534.66;5034479;28;20060;-92
2022/12/09 14:26:52;;;;;;;36.03;14.43;;;;;;;0.87;100.00;100537.94;5037420;28;20117;-92
2022/12/09 14:33:31;;;;;;;43.58;15.35;;;;;;;0.86;100.00;100544.22;4952626;29;20107;-93
2022/12/09 14:36:12;;;;;;;40.75;15.95;;;;;;;0.76;100.00;100541.97;4952688;28;20042;-92
2022/12/09 14:39:20;;;;;;;37.03;15.18;;;;;;;0.75;100.00;100537.69;5008168;28;20062;-91
2022/12/09 14:42:19;;;;;;;39.33;14.40;;;;;;;0.68;100.00;100532.41;5032051;28;20021;-92
2022/12/09 14:44:58;;;;;;;40.63;15.30;;;;;;;0.70;100.00;100535.66;5031052;28;20323;-92
2022/12/09 14:47:28;;;;;;;33.55;14.23;;;;;;;0.77;100.00;100550.66;5038099;28;20024;-92
2022/12/09 14:49:58;;;;;;;35.80;14.55;;;;;;;0.78;100.00;100554.94;5031238;28;20099;-94
2022/12/09 14:52:35;;;;;;;39.88;15.20;;;;;;;0.59;100.00;100529.13;5015310;28;20026;-93
2022/12/09 14:55:14;;;;;;;34.58;14.38;;;;;;;0.71;100.00;100547.00;5037268;28;20112;-90
2022/12/09 14:57:50;;;;;;;40.35;15.85;;;;;;;0.60;100.00;100532.56;5053400;28;20021;-93
2022/12/09 15:00:39;;;;;;;37.03;13.98;;;;;;;0.62;100.00;100543.75;5036524;28;20041;-91
2022/12/09 15:03:15;;;;;;;34.00;13.70;;;;;;;0.57;100.00;100541.72;5017799;28;20038;-91
2022/12/09 15:06:02;;;;;;;35.90;15.23;;;;;;;0.53;100.00;100535.19;4995616;28;20285;-92
2022/12/09 15:08:49;;;;;;;36.30;13.93;;;;;;;0.49;100.00;100541.88;5023405;28;20838;-91
2022/12/09 15:11:30;;;;;;;33.53;13.48;;;;;;;0.41;100.00;100552.59;5020234;28;20112;-92
2022/12/09 15:34:28;;;;;;;38.10;15.90;;;;;;;0.11;100.00;100566.88;5034171;28;20095;-93
2022/12/09 15:37:09;;;;;;;37.90;15.82;;;;;;;0.06;100.00;100555.28;5034585;28;20258;-92
2022/12/09 15:48:42;;;;;;;45.57;19.20;;;;;;;-0.24;100.00;100545.78;5185472;23;20053;-93
2022/12/09 15:51:50;;;;;;;45.17;16.93;;;;;;;-0.12;100.00;100567.13;5059225;28;20313;-96
2022/12/09 15:54:37;;;;;;;47.85;20.20;;;;;;;-0.23;100.00;100560.59;5032236;28;20033;-94
2022/12/09 15:57:10;;;;;;;48.83;17.40;;;;;;;-0.24;100.00;100558.13;5045079;28;20025;-91
2022/12/09 16:04:48;;;;;;;40.92;16.58;;;;;;;-0.44;100.00;100552.72;5075270;22;20124;-91
2022/12/09 16:07:18;;;;;;;47.95;19.67;;;;;;;-0.43;100.00;100559.63;5046031;28;20064;-91
2022/12/09 16:10:25;;;;;;;48.10;20.03;;;;;;;-0.43;100.00;100562.25;5050448;28;20022;-91
2022/12/09 16:16:57;;;;;;;41.72;16.73;;;;;;;-0.56;100.00;100560.34;4996976;28;20163;-91
2022/12/09 16:19:33;;;;;;;46.08;17.50;;;;;;;-0.78;100.00;100549.81;4989430;28;20034;-91
2022/12/09 16:22:13;;;;;;;42.58;18.08;;;;;;;-0.87;100.00;100561.50;5038133;28;20038;-91
2022/12/09 16:24:53;;;;;;;42.25;17.35;;;;;;;-0.95;100.00;100555.34;5037581;28;20056;-92
2022/12/09 16:28:13;;;;;;;;;;;;;;;;;;;;;
2022/12/09 16:34:36;;;;;;;40.40;16.63;;;;;;;-1.52;100.00;100551.72;5016727;28;20288;-95
2022/12/09 16:43:55;;;;;;;48.05;17.80;;;;;;;-1.81;100.00;100542.06;5032659;28;20570;-93
2022/12/09 16:49:47;;;;;;;45.03;17.40;;;;;;;-2.11;100.00;100550.78;5635856;23;20532;-93
2022/12/09 16:52:42;;;;;;;44.22;16.02;;;;;;;-2.28;100.00;100548.31;5033455;28;20065;-90
2022/12/09 16:55:37;;;;;;;;;;;;;;;;;;;;;
2022/12/09 16:58:08;;;;;;;39.30;16.03;;;;;;;-2.35;100.00;100552.66;5028479;28;20308;-95
2022/12/09 17:00:54;;;;;;;42.67;16.60;;;;;;;-2.45;100.00;100552.09;5040713;28;20037;-93
2022/12/09 17:06:55;;;;;;;48.10;17.25;;;;;;;-2.41;100.00;100544.66;4974714;28;20086;-92
2022/12/09 17:09:23;;;;;;;48.90;18.57;;;;;;;-2.24;100.00;100564.50;4987177;28;20049;-94
2022/12/09 17:12:11;;;;;;;60.92;21.88;;;;;;;-2.03;100.00;100576.13;5012908;28;20034;-94
2022/12/09 17:17:11;;;;;;;61.80;21.95;;;;;;;-2.04;100.00;100577.94;5650619;22;20058;-92
2022/12/09 17:19:40;;;;;;;55.17;21.57;;;;;;;-2.02;100.00;100575.13;5034273;28;20018;-91
2022/12/09 17:22:26;;;;;;;61.22;23.35;;;;;;;-1.89;100.00;100593.69;5034096;28;20029;-93
2022/12/09 17:24:51;;;;;;;55.58;22.50;;;;;;;-1.90;100.00;100588.63;5035466;28;20113;-93
2022/12/09 17:27:17;;;;;;;58.47;21.93;;;;;;;-1.96;100.00;100577.03;5035222;28;20053;-94
2022/12/09 17:29:45;;;;;;;57.25;23.17;;;;;;;-1.90;100.00;100575.50;5033110;28;20049;-92
2022/12/09 17:32:10;;;;;;;63.97;22.73;;;;;;;-1.91;100.00;100573.88;5037075;28;20088;-91
2022/12/09 17:34:37;;;;;;;57.70;21.85;;;;;;;-1.84;100.00;100583.47;5034233;28;20025;-93
2022/12/09 17:43:12;;;;;;;54.23;19.87;;;;;;;-1.74;100.00;100598.94;4965978;28;20057;-93
2022/12/09 17:45:38;;;;;;;64.43;25.20;;;;;;;-1.79;100.00;100575.03;4978226;28;20030;-93
2022/12/09 17:51:19;;;;;;;75.13;28.87;;;;;;;-1.61;100.00;100592.22;5034164;28;20091;-93
2022/12/09 17:53:48;;;;;;;77.63;31.03;;;;;;;-1.56;100.00;100593.34;5036051;28;20292;-93
2022/12/09 17:56:24;;;;;;;74.38;28.92;;;;;;;-1.31;100.00;100621.13;5023387;28;20056;-93
2022/12/09 17:59:11;;;;;;;69.53;24.48;;;;;;;-1.40;100.00;100594.13;5090554;22;20076;-93
2022/12/09 18:01:46;;;;;;;70.78;25.80;;;;;;;-1.16;100.00;100628.97;5031724;28;20022;-93
2022/12/09 18:13:02;;;;;;;64.97;26.05;;;;;;;-0.97;100.00;100632.84;5895806;22;20058;-94
2022/12/09 18:15:59;;;;;;;66.90;25.75;;;;;;;-0.96;100.00;100624.75;5001644;28;20054;-96
2022/12/09 18:18:49;;;;;;;57.70;25.13;;;;;;;-0.95;100.00;100623.75;5014074;28;20045;-93
2022/12/09 18:33:22;;;;;;;60.85;23.95;;;;;;;-0.88;100.00;100644.84;6026954;22;20956;-93
2022/12/09 18:36:27;;;;;;;60.28;23.25;;;;;;;-0.85;100.00;100649.75;5032445;28;20037;-93
2022/12/09 18:38:53;;;;;;;60.83;24.30;;;;;;;-0.88;100.00;100649.31;5018831;28;20370;-93
2022/12/09 18:41:29;;;;;;;58.50;22.70;;;;;;;-0.94;100.00;100641.16;5015888;28;20022;-93
2022/12/09 18:44:19;;;;;;;56.90;22.20;;;;;;;-0.99;100.00;100646.16;5019381;28;20060;-94
2022/12/09 18:50:15;;;;;;;55.10;23.08;;;;;;;-1.36;100.00;100637.44;5075252;22;20041;-93
2022/12/09 18:56:04;;;;;;;64.40;26.17;;;;;;;-1.60;100.00;100634.13;5019542;28;20040;-92
2022/12/09 18:58:45;;;;;;;62.63;23.60;;;;;;;-1.77;100.00;100622.16;5042229;28;20067;-93
2022/12/09 19:01:28;;;;;;;60.53;22.70;;;;;;;-1.73;100.00;100645.25;5034507;28;20303;-95
2022/12/09 19:04:16;;;;;;;59.80;24.85;;;;;;;-1.81;100.00;100655.84;5050531;28;20051;-91
2022/12/09 19:16:03;;;;;;;57.53;20.83;;;;;;;-2.06;100.00;100665.75;5034651;28;20045;-92
2022/12/09 19:18:31;;;;;;;65.38;23.40;;;;;;;-2.09;100.00;100661.69;5037973;28;20063;-92
2022/12/09 19:21:25;;;;;;;62.08;22.48;;;;;;;-2.21;100.00;100640.28;5032389;28;20056;-92
2022/12/09 19:24:29;;;;;;;57.17;21.77;;;;;;;-2.02;100.00;100675.75;5040639;28;20025;-92
2022/12/09 19:26:56;;;;;;;57.03;20.55;;;;;;;-1.99;100.00;100672.75;5041351;28;20056;-91
2022/12/09 19:29:23;;;;;;;68.35;22.02;;;;;;;-2.00;100.00;100670.31;5044124;28;20032;-92
2022/12/09 19:31:58;;;;;;;68.53;24.13;;;;;;;-2.08;100.00;100655.44;5027233;28;20022;-92
2022/12/09 19:34:39;;;;;;;69.22;23.40;;;;;;;-2.15;100.00;100650.09;5046300;28;20064;-91
2022/12/09 19:37:11;;;;;;;65.45;23.83;;;;;;;-2.07;100.00;100672.84;5048917;28;20488;-92
2022/12/09 19:39:45;;;;;;;63.77;22.07;;;;;;;-2.18;100.00;100657.50;5014274;28;20036;-92
2022/12/09 19:42:38;;;;;;;65.17;22.57;;;;;;;-2.08;100.00;100668.56;5009337;28;20288;-93
2022/12/09 19:45:10;;;;;;;60.60;21.25;;;;;;;-2.12;100.00;100662.03;5025252;28;20032;-91
2022/12/09 19:47:47;;;;;;;57.75;19.10;;;;;;;-2.12;100.00;100672.53;5017223;28;20033;-92
2022/12/09 19:50:26;;;;;;;55.67;20.25;;;;;;;-2.09;100.00;100687.13;5029070;28;20034;-92
2022/12/09 19:53:04;;;;;;;66.70;20.95;;;;;;;-2.12;100.00;100677.78;5040015;28;20037;-94
2022/12/09 19:55:48;;;;;;;56.97;19.13;;;;;;;-2.15;100.00;100673.72;5040641;28;20040;-91
2022/12/09 19:58:30;;;;;;;55.78;18.77;;;;;;;-2.03;100.00;100687.25;5022056;28;20054;-92
2022/12/09 20:01:14;;;;;;;58.40;19.70;;;;;;;-2.17;100.00;100669.63;5021532;28;20429;-92
2022/12/09 20:03:51;;;;;;;51.20;18.58;;;;;;;-2.06;100.00;100682.34;5016771;28;20013;-92
2022/12/09 20:06:22;;;;;;;57.58;20.30;;;;;;;-2.22;100.00;100661.50;5029818;28;20037;-93
2022/12/09 20:09:05;;;;;;;54.20;19.55;;;;;;;-2.22;100.00;100672.00;5029128;28;20075;-90
2022/12/09 20:11:42;;;;;;;57.65;20.35;;;;;;;-2.35;100.00;100662.06;5014167;28;20117;-96
2022/12/09 20:14:26;;;;;;;54.88;19.90;;;;;;;-2.47;100.00;100673.00;5027866;28;20033;-96
2022/12/09 20:17:02;;;;;;;58.30;19.38;;;;;;;-2.38;100.00;100691.28;5012187;28;20035;-96
2022/12/09 20:19:43;;;;;;;56.33;18.63;;;;;;;-2.66;100.00;100671.63;4994763;28;20038;-96
2022/12/09 20:22:17;;;;;;;48.60;18.50;;;;;;;-2.80;100.00;100664.53;5019125;28;20330;-96
2022/12/09 20:24:55;;;;;;;53.13;18.02;;;;;;;-2.95;100.00;100665.28;5029987;28;20366;-96
2022/12/09 20:27:36;;;;;;;55.13;18.85;;;;;;;-2.99;100.00;100684.94;5011018;28;20032;-96
2022/12/09 20:30:11;;;;;;;57.50;20.70;;;;;;;-2.97;100.00;100663.78;5017893;28;20385;-96
2022/12/09 20:32:54;;;;;;;61.28;20.38;;;;;;;-2.89;100.00;100682.13;5030977;28;20500;-96
2022/12/09 20:35:30;;;;;;;55.58;20.38;;;;;;;-3.00;100.00;100674.63;5032925;28;20087;-96
2022/12/09 20:38:11;;;;;;;62.97;22.20;;;;;;;-3.08;100.00;100673.69;5012014;28;20481;-95
2022/12/09 20:40:36;;;;;;;65.25;21.67;;;;;;;-2.99;100.00;100692.81;5020226;28;20010;-94